Time,TemperatureF,DewpointF,PressureIn,WindDirection,WindDirectionDegrees,WindSpeedMPH,WindSpeedGustMPH,Humidity,HourlyPrecipIn,Conditions,Clouds,dailyrainin,SoftwareType,DateUTC
2013-03-19 00:04:00,41.8,41.5,29.87,South,186,0.0,4.0,99,0.00,,,0.57,Wunderground v.1.15,2013-03-19 04:04:00,
2013-03-19 00:13:00,41.8,41.5,29.87,South,173,0.0,4.0,99,0.00,,,0.57,Wunderground v.1.15,2013-03-19 04:13:00,
2013-03-19 00:18:00,41.8,41.5,29.87,South,174,0.0,4.0,99,0.00,,,0.57,Wunderground v.1.15,2013-03-19 04:18:00,
2013-03-19 00:23:00,42.0,41.7,29.87,South,186,0.0,4.0,99,0.00,,,0.57,Wunderground v.1.15,2013-03-19 04:23:00,
2013-03-19 00:28:00,42.1,41.8,29.87,SE,142,0.0,4.0,99,0.00,,,0.57,Wunderground v.1.15,2013-03-19 04:28:00,
2013-03-19 00:33:00,42.0,41.7,29.88,South,184,1.0,4.0,99,0.00,,,0.57,Wunderground v.1.15,2013-03-19 04:33:00,
2013-03-19 00:43:00,41.4,41.1,29.87,South,184,0.0,4.0,99,0.00,,,0.57,Wunderground v.1.15,2013-03-19 04:43:00,
2013-03-19 00:48:00,41.7,41.4,29.87,South,184,0.0,4.0,99,0.00,,,0.57,Wunderground v.1.15,2013-03-19 04:48:00,
2013-03-19 00:53:00,41.5,41.2,29.88,South,184,0.0,4.0,99,0.00,,,0.57,Wunderground v.1.15,2013-03-19 04:53:00,
2013-03-19 00:58:00,41.1,40.8,29.88,South,184,0.0,4.0,99,0.00,,,0.57,Wunderground v.1.15,2013-03-19 04:58:00,
2013-03-19 01:03:00,41.1,40.8,29.87,South,184,0.0,4.0,99,0.00,,,0.57,Wunderground v.1.15,2013-03-19 05:03:00,
2013-03-19 01:13:00,40.9,40.6,29.88,South,184,0.0,0.0,99,0.00,,,0.00,Wunderground v.1.15,2013-03-19 05:13:00,
2013-03-19 01:23:00,40.6,40.1,29.88,South,184,0.0,0.0,98,0.00,,,0.00,Wunderground v.1.15,2013-03-19 05:23:00,
2013-03-19 01:28:00,40.5,40.2,29.88,South,184,0.0,0.0,99,0.00,,,0.00,Wunderground v.1.15,2013-03-19 05:28:00,
2013-03-19 01:33:00,40.4,40.1,29.88,South,184,0.0,0.0,99,0.00,,,0.00,Wunderground v.1.15,2013-03-19 05:33:00,
2013-03-19 01:38:00,40.2,39.7,29.88,South,184,0.0,0.0,98,0.00,,,0.00,Wunderground v.1.15,2013-03-19 05:38:00,
2013-03-19 01:43:00,40.1,39.6,29.88,South,184,0.0,0.0,98,0.00,,,0.00,Wunderground v.1.15,2013-03-19 05:43:00,
2013-03-19 01:48:00,40.2,39.7,29.88,South,184,0.0,0.0,98,0.00,,,0.00,Wunderground v.1.15,2013-03-19 05:48:00,
2013-03-19 01:58:00,40.0,39.5,29.88,South,184,0.0,0.0,98,0.00,,,0.00,Wunderground v.1.15,2013-03-19 05:58:00,
2013-03-19 02:03:00,39.8,39.5,29.88,South,184,0.0,0.0,99,0.00,,,0.00,Wunderground v.1.15,2013-03-19 06:03:00,
2013-03-19 02:13:00,39.7,39.4,29.87,South,184,0.0,0.0,99,0.00,,,0.00,Wunderground v.1.15,2013-03-19 06:13:00,
2013-03-19 02:18:00,39.7,39.2,29.88,South,184,0.0,1.0,98,0.00,,,0.00,Wunderground v.1.15,2013-03-19 06:18:00,
2013-03-19 02:23:00,39.7,39.2,29.88,South,184,0.0,1.0,98,0.00,,,0.00,Wunderground v.1.15,2013-03-19 06:23:00,
2013-03-19 02:28:00,39.6,39.1,29.88,South,184,0.0,0.0,98,0.00,,,0.00,Wunderground v.1.15,2013-03-19 06:28:00,
2013-03-19 02:33:00,39.7,39.4,29.88,South,184,0.0,0.0,99,0.00,,,0.00,Wunderground v.1.15,2013-03-19 06:33:00,
2013-03-19 02:38:00,39.7,39.4,29.88,South,184,0.0,0.0,99,0.00,,,0.00,Wunderground v.1.15,2013-03-19 06:38:00,
2013-03-19 02:43:00,39.7,39.4,29.88,South,184,0.0,0.0,99,0.00,,,0.00,Wunderground v.1.15,2013-03-19 06:43:00,
2013-03-19 02:53:00,39.6,39.3,29.88,South,184,0.0,2.0,99,0.00,,,0.00,Wunderground v.1.15,2013-03-19 06:53:00,
2013-03-19 02:58:00,39.5,39.2,29.89,South,184,0.0,0.0,99,0.00,,,0.00,Wunderground v.1.15,2013-03-19 06:58:00,
2013-03-19 03:03:00,39.5,39.2,29.90,South,184,0.0,2.0,99,0.00,,,0.00,Wunderground v.1.15,2013-03-19 07:03:00,
2013-03-19 03:13:00,39.8,39.5,29.89,North,360,1.0,4.0,99,0.00,,,0.00,Wunderground v.1.15,2013-03-19 07:13:00,
2013-03-19 03:18:00,40.0,39.7,29.89,North,360,0.0,4.0,99,0.00,,,0.00,Wunderground v.1.15,2013-03-19 07:18:00,
2013-03-19 03:23:00,40.1,39.8,29.90,North,360,0.0,4.0,99,0.00,,,0.00,Wunderground v.1.15,2013-03-19 07:23:00,
2013-03-19 03:28:00,40.2,39.9,29.89,North,360,0.0,4.0,99,0.00,,,0.00,Wunderground v.1.15,2013-03-19 07:28:00,
2013-03-19 03:38:00,41.1,40.8,29.88,North,360,0.0,4.0,99,0.00,,,0.00,Wunderground v.1.15,2013-03-19 07:38:00,
2013-03-19 03:48:00,40.7,40.4,29.89,North,360,0.0,4.0,99,0.00,,,0.00,Wunderground v.1.15,2013-03-19 07:48:00,
2013-03-19 03:53:00,40.4,40.1,29.88,North,360,0.0,4.0,99,0.00,,,0.00,Wunderground v.1.15,2013-03-19 07:53:00,
2013-03-19 03:58:00,40.2,39.9,29.89,North,360,0.0,4.0,99,0.00,,,0.00,Wunderground v.1.15,2013-03-19 07:58:00,
2013-03-19 04:03:00,40.0,39.7,29.88,North,360,0.0,4.0,99,0.00,,,0.00,Wunderground v.1.15,2013-03-19 08:03:00,
2013-03-19 04:13:00,39.5,39.2,29.89,North,360,1.0,2.0,99,0.00,,,0.00,Wunderground v.1.15,2013-03-19 08:13:00,
2013-03-19 04:23:00,39.5,39.2,29.89,North,360,0.0,2.0,99,0.00,,,0.00,Wunderground v.1.15,2013-03-19 08:23:00,
2013-03-19 04:28:00,39.5,39.2,29.89,North,360,1.0,1.0,99,0.00,,,0.00,Wunderground v.1.15,2013-03-19 08:28:00,
2013-03-19 04:33:00,39.7,39.4,29.89,North,360,0.0,1.0,99,0.00,,,0.00,Wunderground v.1.15,2013-03-19 08:33:00,
2013-03-19 04:38:00,39.8,39.5,29.89,North,360,1.0,1.0,99,0.00,,,0.00,Wunderground v.1.15,2013-03-19 08:38:00,
2013-03-19 04:48:00,40.4,40.1,29.89,North,355,1.0,2.0,99,0.00,,,0.00,Wunderground v.1.15,2013-03-19 08:48:00,
2013-03-19 04:58:00,41.4,41.1,29.89,North,360,1.0,4.0,99,0.00,,,0.00,Wunderground v.1.15,2013-03-19 08:58:00,
2013-03-19 05:03:00,41.9,41.6,29.89,North,355,3.0,6.0,99,0.00,,,0.00,Wunderground v.1.15,2013-03-19 09:03:00,
2013-03-19 05:13:00,42.5,42.2,29.90,North,349,7.0,12.0,99,0.00,,,0.00,Wunderground v.1.15,2013-03-19 09:13:00,
2013-03-19 05:23:00,42.5,42.2,29.91,North,360,9.0,11.0,99,0.00,,,0.00,Wunderground v.1.15,2013-03-19 09:23:00,
2013-03-19 05:28:00,42.3,42.0,29.91,North,350,10.0,13.0,99,0.00,,,0.00,Wunderground v.1.15,2013-03-19 09:28:00,
2013-03-19 05:38:00,42.0,41.7,29.92,North,355,12.0,15.0,99,0.00,,,0.00,Wunderground v.1.15,2013-03-19 09:38:00,
2013-03-19 05:43:00,41.9,41.6,29.92,North,5,14.0,15.0,99,0.00,,,0.00,Wunderground v.1.15,2013-03-19 09:43:00,
2013-03-19 05:48:00,41.8,41.5,29.92,North,355,14.0,18.0,99,0.00,,,0.00,Wunderground v.1.15,2013-03-19 09:48:00,
2013-03-19 05:53:00,41.6,41.3,29.92,North,349,14.0,18.0,99,0.00,,,0.00,Wunderground v.1.15,2013-03-19 09:53:00,
2013-03-19 05:58:00,41.4,41.1,29.93,North,360,14.0,14.0,99,0.00,,,0.00,Wunderground v.1.15,2013-03-19 09:58:00,
2013-03-19 06:03:00,41.1,40.8,29.92,North,355,15.0,18.0,99,0.00,,,0.00,Wunderground v.1.15,2013-03-19 10:03:00,
2013-03-19 06:13:00,40.7,40.4,29.93,North,5,16.0,24.0,99,0.00,,,0.00,Wunderground v.1.15,2013-03-19 10:13:00,
2013-03-19 06:18:00,40.4,40.1,29.94,NNW,345,17.0,17.0,99,0.00,,,0.00,Wunderground v.1.15,2013-03-19 10:18:00,
2013-03-19 06:23:00,40.1,39.8,29.95,North,355,17.0,24.0,99,0.00,,,0.00,Wunderground v.1.15,2013-03-19 10:23:00,
2013-03-19 06:29:00,39.6,39.3,29.95,North,360,16.0,26.0,99,0.00,,,0.00,Wunderground v.1.15,2013-03-19 10:29:00,
2013-03-19 06:34:00,38.9,38.6,29.96,North,355,16.0,26.0,99,0.00,,,0.00,Wunderground v.1.15,2013-03-19 10:34:00,
2013-03-19 06:39:00,38.0,37.7,29.97,North,355,17.0,17.0,99,0.00,,,0.00,Wunderground v.1.15,2013-03-19 10:39:00,
2013-03-19 06:49:00,36.8,36.3,29.98,NNW,336,18.0,24.0,98,0.00,,,0.00,Wunderground v.1.15,2013-03-19 10:49:00,
2013-03-19 06:54:00,36.4,35.9,29.98,North,350,18.0,24.0,98,0.00,,,0.00,Wunderground v.1.15,2013-03-19 10:54:00,
2013-03-19 06:59:00,36.2,35.4,29.98,North,355,18.0,18.0,97,0.00,,,0.00,Wunderground v.1.15,2013-03-19 10:59:00,
2013-03-19 07:04:00,36.0,35.0,29.99,North,350,17.0,24.0,96,0.00,,,0.00,Wunderground v.1.15,2013-03-19 11:04:00,
2013-03-19 07:14:00,35.6,34.3,29.99,North,360,13.0,24.0,95,0.00,,,0.00,Wunderground v.1.15,2013-03-19 11:14:00,
2013-03-19 07:24:00,35.1,33.3,30.00,North,5,12.0,24.0,93,0.00,,,0.00,Wunderground v.1.15,2013-03-19 11:24:00,
2013-03-19 07:29:00,34.8,33.0,30.00,North,350,12.0,24.0,93,0.00,,,0.00,Wunderground v.1.15,2013-03-19 11:29:00,
2013-03-19 07:34:00,34.5,32.4,30.00,North,355,12.0,24.0,92,0.00,,,0.00,Wunderground v.1.15,2013-03-19 11:34:00,
2013-03-19 07:39:00,34.4,32.0,30.01,North,360,11.0,24.0,91,0.00,,,0.00,Wunderground v.1.15,2013-03-19 11:39:00,
2013-03-19 07:44:00,34.4,32.0,30.02,North,355,12.0,24.0,91,0.00,,,0.00,Wunderground v.1.15,2013-03-19 11:44:00,
2013-03-19 07:53:00,34.3,31.1,30.03,North,360,12.0,24.0,88,0.00,,,0.00,Wunderground v.1.15,2013-03-19 11:53:00,
2013-03-19 07:59:00,34.2,31.0,30.03,NNW,346,11.0,24.0,88,0.00,,,0.00,Wunderground v.1.15,2013-03-19 11:59:00,
2013-03-19 08:09:00,34.0,30.5,30.02,North,5,11.0,11.0,87,0.00,,,0.00,Wunderground v.1.15,2013-03-19 12:09:00,
2013-03-19 08:19:00,33.9,29.9,30.02,North,355,10.0,10.0,85,0.00,,,0.00,Wunderground v.1.15,2013-03-19 12:19:00,
2013-03-19 08:28:00,33.9,29.6,30.03,North,355,9.0,9.0,84,0.00,,,0.00,Wunderground v.1.15,2013-03-19 12:28:00,
2013-03-19 08:34:00,33.9,29.6,30.03,NNE,25,8.0,19.0,84,0.00,,,0.00,Wunderground v.1.15,2013-03-19 12:34:00,
2013-03-19 08:43:00,33.8,29.5,30.03,North,350,8.0,11.0,84,0.00,,,0.00,Wunderground v.1.15,2013-03-19 12:43:00,
2013-03-19 08:49:00,33.8,29.5,30.03,North,360,9.0,19.0,84,0.00,,,0.00,Wunderground v.1.15,2013-03-19 12:49:00,
2013-03-19 08:59:00,33.8,30.9,30.03,NNW,348,10.0,19.0,89,0.00,,,0.00,Wunderground v.1.15,2013-03-19 12:59:00,
2013-03-19 09:04:00,33.9,29.3,30.03,North,360,11.0,19.0,83,0.00,,,0.00,Wunderground v.1.15,2013-03-19 13:04:00,
2013-03-19 09:13:00,34.1,29.5,30.02,NNW,344,11.0,15.0,83,0.00,,,0.00,Wunderground v.1.15,2013-03-19 13:13:00,
2013-03-19 09:23:00,34.2,30.2,30.02,North,360,10.0,18.0,85,0.00,,,0.00,Wunderground v.1.15,2013-03-19 13:23:00,
2013-03-19 09:34:00,34.4,30.1,30.01,North,355,9.0,18.0,84,0.00,,,0.00,Wunderground v.1.15,2013-03-19 13:34:00,
2013-03-19 09:39:00,34.4,30.1,30.01,NNW,344,9.0,18.0,84,0.00,,,0.00,Wunderground v.1.15,2013-03-19 13:39:00,
2013-03-19 09:44:00,34.4,30.1,30.01,North,5,10.0,18.0,84,0.00,,,0.00,Wunderground v.1.15,2013-03-19 13:44:00,
2013-03-19 09:49:00,34.4,29.8,30.01,NNW,346,10.0,18.0,83,0.00,,,0.00,Wunderground v.1.15,2013-03-19 13:49:00,
2013-03-19 09:58:00,34.8,29.9,30.02,North,350,11.0,11.0,82,0.00,,,0.00,Wunderground v.1.15,2013-03-19 13:58:00,
2013-03-19 10:04:00,35.1,29.6,30.02,NNW,340,11.0,15.0,80,0.00,,,0.00,Wunderground v.1.15,2013-03-19 14:04:00,
2013-03-19 10:13:00,35.5,29.3,30.01,North,5,12.0,15.0,78,0.00,,,0.00,Wunderground v.1.15,2013-03-19 14:13:00,
2013-03-19 10:19:00,35.6,29.4,30.01,North,355,11.0,11.0,78,0.00,,,0.00,Wunderground v.1.15,2013-03-19 14:19:00,
2013-03-19 10:29:00,36.1,29.6,30.01,North,5,10.0,10.0,77,0.00,,,0.00,Wunderground v.1.15,2013-03-19 14:29:00,
2013-03-19 10:38:00,36.5,30.3,30.01,North,360,8.0,8.0,78,0.00,,,0.00,Wunderground v.1.15,2013-03-19 14:38:00,
2013-03-19 10:43:00,36.8,29.9,30.01,North,355,8.0,9.0,76,0.00,,,0.00,Wunderground v.1.15,2013-03-19 14:43:00,
2013-03-19 10:48:00,37.0,30.1,30.01,North,355,9.0,15.0,76,0.00,,,0.00,Wunderground v.1.15,2013-03-19 14:48:00,
2013-03-19 10:53:00,37.2,29.0,30.02,NNW,348,11.0,15.0,72,0.00,,,0.00,Wunderground v.1.15,2013-03-19 14:53:00,
2013-03-19 10:59:00,37.4,30.2,30.02,North,11,11.0,11.0,75,0.00,,,0.00,Wunderground v.1.15,2013-03-19 14:59:00,
2013-03-19 11:04:00,37.7,30.5,30.02,NNE,13,9.0,18.0,75,0.00,,,0.00,Wunderground v.1.15,2013-03-19 15:04:00,
2013-03-19 11:13:00,38.4,30.2,30.03,North,360,10.0,18.0,72,0.00,,,0.00,Wunderground v.1.15,2013-03-19 15:13:00,
2013-03-19 11:18:00,38.7,30.4,30.03,NNW,348,10.0,18.0,72,0.00,,,0.00,Wunderground v.1.15,2013-03-19 15:18:00,
2013-03-19 11:23:00,39.2,30.9,30.03,NNE,17,9.0,18.0,72,0.00,,,0.00,Wunderground v.1.15,2013-03-19 15:23:00,
2013-03-19 11:33:00,40.7,32.4,30.03,North,355,9.0,10.0,72,0.00,,,0.00,Wunderground v.1.15,2013-03-19 15:33:00,
2013-03-19 11:38:00,41.5,33.5,30.04,North,355,9.0,9.0,73,0.00,,,0.00,Wunderground v.1.15,2013-03-19 15:38:00,
2013-03-19 11:48:00,42.3,32.8,30.04,North,355,9.0,18.0,69,0.00,,,0.00,Wunderground v.1.15,2013-03-19 15:48:00,
2013-03-19 11:53:00,42.4,31.5,30.04,North,349,10.0,18.0,65,0.00,,,0.00,Wunderground v.1.15,2013-03-19 15:53:00,
2013-03-19 12:04:00,42.7,31.4,30.04,North,360,10.0,20.0,64,0.00,,,0.00,Wunderground v.1.15,2013-03-19 16:04:00,
2013-03-19 12:13:00,43.8,33.2,30.04,NNW,345,7.0,13.0,66,0.00,,,0.00,Wunderground v.1.15,2013-03-19 16:13:00,
2013-03-19 12:18:00,44.5,31.5,30.04,North,355,9.0,20.0,60,0.00,,,0.00,Wunderground v.1.15,2013-03-19 16:18:00,
2013-03-19 12:23:00,44.3,31.3,30.05,North,5,10.0,20.0,60,0.00,,,0.00,Wunderground v.1.15,2013-03-19 16:23:00,
2013-03-19 12:28:00,44.6,32.0,30.05,North,5,8.0,20.0,61,0.00,,,0.00,Wunderground v.1.15,2013-03-19 16:28:00,
2013-03-19 12:33:00,44.7,31.7,30.05,North,351,8.0,20.0,60,0.00,,,0.00,Wunderground v.1.15,2013-03-19 16:33:00,
2013-03-19 12:38:00,45.3,32.6,30.06,NNW,337,10.0,20.0,61,0.00,,,0.00,Wunderground v.1.15,2013-03-19 16:38:00,
2013-03-19 12:43:00,45.6,31.7,30.05,North,360,10.0,20.0,58,0.00,,,0.00,Wunderground v.1.15,2013-03-19 16:43:00,
2013-03-19 12:48:00,45.8,32.7,30.06,North,355,8.0,8.0,60,0.00,,,0.00,Wunderground v.1.15,2013-03-19 16:48:00,
2013-03-19 12:58:00,46.8,34.0,30.05,North,355,7.0,7.0,61,0.00,,,0.00,Wunderground v.1.15,2013-03-19 16:58:00,
2013-03-19 13:03:00,47.7,34.5,30.05,North,355,7.0,13.0,60,0.00,,,0.00,Wunderground v.1.15,2013-03-19 17:03:00,
2013-03-19 13:13:00,47.8,31.9,30.04,North,350,7.0,9.0,54,0.00,,,0.00,Wunderground v.1.15,2013-03-19 17:13:00,
2013-03-19 13:23:00,48.1,33.6,30.03,North,351,8.0,13.0,57,0.00,,,0.00,Wunderground v.1.15,2013-03-19 17:23:00,
2013-03-19 13:28:00,48.6,32.7,30.03,NNE,12,7.0,7.0,54,0.00,,,0.00,Wunderground v.1.15,2013-03-19 17:28:00,
2013-03-19 13:33:00,49.0,33.5,30.03,North,355,6.0,13.0,55,0.00,,,0.00,Wunderground v.1.15,2013-03-19 17:33:00,
2013-03-19 13:38:00,49.3,33.3,30.03,North,355,6.0,13.0,54,0.00,,,0.00,Wunderground v.1.15,2013-03-19 17:38:00,
2013-03-19 13:43:00,49.2,32.8,30.03,NNW,335,6.0,13.0,53,0.00,,,0.00,Wunderground v.1.15,2013-03-19 17:43:00,
2013-03-19 13:48:00,49.7,33.7,30.03,NNW,346,7.0,13.0,54,0.00,,,0.00,Wunderground v.1.15,2013-03-19 17:48:00,
2013-03-19 13:58:00,50.5,34.0,30.03,North,351,9.0,13.0,53,0.00,,,0.00,Wunderground v.1.15,2013-03-19 17:58:00,
2013-03-19 14:03:00,50.6,34.1,30.03,North,355,10.0,14.0,53,0.00,,,0.00,Wunderground v.1.15,2013-03-19 18:03:00,
2013-03-19 14:13:00,51.2,35.1,30.03,North,360,11.0,15.0,54,0.00,,,0.00,Wunderground v.1.15,2013-03-19 18:13:00,
2013-03-19 14:18:00,51.3,34.7,30.03,North,355,11.0,11.0,53,0.00,,,0.00,Wunderground v.1.15,2013-03-19 18:18:00,
2013-03-19 14:23:00,50.5,31.5,30.03,North,5,11.0,15.0,48,0.00,,,0.00,Wunderground v.1.15,2013-03-19 18:23:00,
2013-03-19 14:28:00,50.8,32.3,30.03,North,5,10.0,15.0,49,0.00,,,0.00,Wunderground v.1.15,2013-03-19 18:28:00,
2013-03-19 14:38:00,51.5,34.9,30.02,North,355,11.0,11.0,53,0.00,,,0.00,Wunderground v.1.15,2013-03-19 18:38:00,
2013-03-19 14:43:00,51.4,32.9,30.02,North,5,9.0,15.0,49,0.00,,,0.00,Wunderground v.1.15,2013-03-19 18:43:00,
2013-03-19 14:48:00,51.8,35.2,30.02,North,350,9.0,15.0,53,0.00,,,0.00,Wunderground v.1.15,2013-03-19 18:48:00,
2013-03-19 14:58:00,53.2,35.0,30.02,North,355,10.0,15.0,50,0.00,,,0.00,Wunderground v.1.15,2013-03-19 18:58:00,
2013-03-19 15:03:00,52.5,33.4,30.02,North,350,9.0,19.0,48,0.00,,,0.00,Wunderground v.1.15,2013-03-19 19:03:00,
2013-03-19 15:13:00,53.0,33.8,30.02,NNW,346,9.0,19.0,48,0.00,,,0.00,Wunderground v.1.15,2013-03-19 19:13:00,
2013-03-19 15:18:00,53.3,34.1,30.02,North,351,9.0,9.0,48,0.00,,,0.00,Wunderground v.1.15,2013-03-19 19:18:00,
2013-03-19 15:23:00,53.7,33.9,30.01,NNW,342,10.0,10.0,47,0.00,,,0.00,Wunderground v.1.15,2013-03-19 19:23:00,
2013-03-19 15:33:00,54.0,33.7,30.02,North,355,9.0,19.0,46,0.00,,,0.00,Wunderground v.1.15,2013-03-19 19:33:00,
2013-03-19 15:38:00,54.1,32.1,30.02,North,350,8.0,8.0,43,0.00,,,0.00,Wunderground v.1.15,2013-03-19 19:38:00,
2013-03-19 15:43:00,54.2,34.9,30.02,North,355,9.0,11.0,48,0.00,,,0.00,Wunderground v.1.15,2013-03-19 19:43:00,
2013-03-19 15:48:00,54.1,33.2,30.02,North,360,10.0,19.0,45,0.00,,,0.00,Wunderground v.1.15,2013-03-19 19:48:00,
2013-03-19 15:53:00,53.7,33.9,30.02,NNE,13,11.0,19.0,47,0.00,,,0.00,Wunderground v.1.15,2013-03-19 19:53:00,
2013-03-19 16:03:00,54.1,32.6,30.02,North,355,11.0,18.0,44,0.00,,,0.00,Wunderground v.1.15,2013-03-19 20:03:00,
2013-03-19 16:13:00,54.4,32.3,30.01,North,360,13.0,13.0,43,0.00,,,0.00,Wunderground v.1.15,2013-03-19 20:13:00,
2013-03-19 16:18:00,54.3,32.3,30.02,North,5,13.0,13.0,43,0.00,,,0.00,Wunderground v.1.15,2013-03-19 20:18:00,
2013-03-19 16:23:00,54.2,31.6,30.01,NNE,16,12.0,18.0,42,0.00,,,0.00,Wunderground v.1.15,2013-03-19 20:23:00,
2013-03-19 16:33:00,53.9,30.7,30.02,North,350,14.0,18.0,41,0.00,,,0.00,Wunderground v.1.15,2013-03-19 20:33:00,
2013-03-19 16:38:00,53.7,28.0,30.02,North,355,14.0,19.0,37,0.00,,,0.00,Wunderground v.1.15,2013-03-19 20:38:00,
2013-03-19 16:43:00,53.8,30.0,30.02,North,355,15.0,19.0,40,0.00,,,0.00,Wunderground v.1.15,2013-03-19 20:43:00,
2013-03-19 16:48:00,53.9,28.8,30.02,North,355,13.0,18.0,38,0.00,,,0.00,Wunderground v.1.15,2013-03-19 20:48:00,
2013-03-19 16:58:00,54.2,29.1,30.01,North,360,12.0,18.0,38,0.00,,,0.00,Wunderground v.1.15,2013-03-19 20:58:00,
2013-03-19 17:03:00,54.2,31.6,30.02,NNW,342,12.0,19.0,42,0.00,,,0.00,Wunderground v.1.15,2013-03-19 21:03:00,
2013-03-19 17:13:00,54.2,31.0,30.02,North,355,12.0,19.0,41,0.00,,,0.00,Wunderground v.1.15,2013-03-19 21:13:00,
2013-03-19 17:23:00,52.7,28.4,30.02,NNW,342,9.0,19.0,39,0.00,,,0.00,Wunderground v.1.15,2013-03-19 21:23:00,
2013-03-19 17:28:00,53.0,29.9,30.02,North,355,10.0,19.0,41,0.00,,,0.00,Wunderground v.1.15,2013-03-19 21:28:00,
2013-03-19 17:33:00,52.8,29.1,30.02,North,355,12.0,19.0,40,0.00,,,0.00,Wunderground v.1.15,2013-03-19 21:33:00,
2013-03-19 17:38:00,52.2,29.8,30.02,NNW,341,12.0,12.0,42,0.00,,,0.00,Wunderground v.1.15,2013-03-19 21:38:00,
2013-03-19 17:48:00,53.1,31.2,30.03,NNW,346,10.0,10.0,43,0.00,,,0.00,Wunderground v.1.15,2013-03-19 21:48:00,
2013-03-19 17:58:00,53.1,30.6,30.03,NNW,342,11.0,11.0,42,0.00,,,0.00,Wunderground v.1.15,2013-03-19 21:58:00,
2013-03-19 18:03:00,53.3,32.5,30.03,North,5,10.0,15.0,45,0.00,,,0.00,Wunderground v.1.15,2013-03-19 22:03:00,
2013-03-19 18:13:00,53.2,31.3,30.03,North,355,9.0,12.0,43,0.00,,,0.00,Wunderground v.1.15,2013-03-19 22:13:00,
2013-03-19 18:23:00,52.7,30.8,30.03,North,355,11.0,15.0,43,0.00,,,0.00,Wunderground v.1.15,2013-03-19 22:23:00,
2013-03-19 18:28:00,52.2,30.4,30.03,NNW,339,11.0,15.0,43,0.00,,,0.00,Wunderground v.1.15,2013-03-19 22:28:00,
2013-03-19 18:38:00,50.8,29.1,30.03,NNW,336,15.0,18.0,43,0.00,,,0.00,Wunderground v.1.15,2013-03-19 22:38:00,
2013-03-19 18:43:00,50.3,28.1,30.03,North,355,14.0,18.0,42,0.00,,,0.00,Wunderground v.1.15,2013-03-19 22:43:00,
2013-03-19 18:53:00,49.8,27.0,30.03,NNW,348,13.0,15.0,41,0.00,,,0.00,Wunderground v.1.15,2013-03-19 22:53:00,
2013-03-19 18:58:00,49.4,25.4,30.03,NNW,348,14.0,18.0,39,0.00,,,0.00,Wunderground v.1.15,2013-03-19 22:58:00,
2013-03-19 19:03:00,49.0,25.7,30.03,North,360,15.0,21.0,40,0.00,,,0.00,Wunderground v.1.15,2013-03-19 23:03:00,
2013-03-19 19:13:00,48.3,25.1,30.04,North,355,14.0,21.0,40,0.00,,,0.00,Wunderground v.1.15,2013-03-19 23:13:00,
2013-03-19 19:18:00,47.8,24.0,30.04,NNW,347,14.0,21.0,39,0.00,,,0.00,Wunderground v.1.15,2013-03-19 23:18:00,
2013-03-19 19:28:00,46.9,23.8,30.03,North,355,13.0,13.0,40,0.00,,,0.00,Wunderground v.1.15,2013-03-19 23:28:00,
2013-03-19 19:33:00,46.4,21.5,30.03,North,10,12.0,21.0,37,0.00,,,0.00,Wunderground v.1.15,2013-03-19 23:33:00,
2013-03-19 19:38:00,45.9,21.7,30.04,North,350,11.0,21.0,38,0.00,,,0.00,Wunderground v.1.15,2013-03-19 23:38:00,
2013-03-19 19:48:00,45.0,20.9,30.05,NNW,345,11.0,21.0,38,0.00,,,0.00,Wunderground v.1.15,2013-03-19 23:48:00,
2013-03-19 19:53:00,44.7,21.2,30.05,North,360,10.0,21.0,39,0.00,,,0.00,Wunderground v.1.15,2013-03-19 23:53:00,
2013-03-19 19:58:00,44.4,21.0,30.06,NNW,346,11.0,11.0,39,0.00,,,0.00,Wunderground v.1.15,2013-03-19 23:58:00,
2013-03-19 20:03:00,44.2,20.8,30.06,NNW,346,11.0,18.0,39,0.00,,,0.00,Wunderground v.1.15,2013-03-20 00:03:00,
2013-03-19 20:18:00,43.4,19.5,30.07,North,360,12.0,19.0,38,0.00,,,0.00,Wunderground v.1.15,2013-03-20 00:18:00,
2013-03-19 20:29:00,43.0,18.5,30.07,North,355,13.0,18.0,37,0.00,,,0.00,Wunderground v.1.15,2013-03-20 00:29:00,
2013-03-19 20:34:00,42.8,18.3,30.07,North,5,11.0,18.0,37,0.00,,,0.00,Wunderground v.1.15,2013-03-20 00:34:00,
2013-03-19 20:39:00,42.6,18.7,30.07,North,355,9.0,18.0,38,0.00,,,0.00,Wunderground v.1.15,2013-03-20 00:39:00,
2013-03-19 20:44:00,42.3,17.8,30.07,NNE,17,8.0,18.0,37,0.00,,,0.00,Wunderground v.1.15,2013-03-20 00:44:00,
2013-03-19 20:54:00,41.8,17.4,30.08,North,355,8.0,10.0,37,0.00,,,0.00,Wunderground v.1.15,2013-03-20 00:54:00,
2013-03-19 20:59:00,41.6,17.2,30.08,North,355,8.0,8.0,37,0.00,,,0.00,Wunderground v.1.15,2013-03-20 00:59:00,
2013-03-19 21:04:00,41.4,17.0,30.08,NNW,345,9.0,9.0,37,0.00,,,0.00,Wunderground v.1.15,2013-03-20 01:04:00,
2013-03-19 21:14:00,41.1,16.8,30.08,North,5,8.0,12.0,37,0.00,,,0.00,Wunderground v.1.15,2013-03-20 01:14:00,
2013-03-19 21:24:00,40.8,15.9,30.08,North,350,8.0,12.0,36,0.00,,,0.00,Wunderground v.1.15,2013-03-20 01:24:00,
2013-03-19 21:29:00,40.6,16.3,30.08,North,350,8.0,12.0,37,0.00,,,0.00,Wunderground v.1.15,2013-03-20 01:29:00,
2013-03-19 21:34:00,40.5,16.2,30.08,North,5,8.0,12.0,37,0.00,,,0.00,Wunderground v.1.15,2013-03-20 01:34:00,
2013-03-19 21:39:00,40.3,16.1,30.08,North,355,8.0,12.0,37,0.00,,,0.00,Wunderground v.1.15,2013-03-20 01:39:00,
2013-03-19 21:44:00,40.2,15.3,30.08,North,355,9.0,12.0,36,0.00,,,0.00,Wunderground v.1.15,2013-03-20 01:44:00,
2013-03-19 21:54:00,39.9,16.3,30.09,NNW,338,6.0,12.0,38,0.00,,,0.00,Wunderground v.1.15,2013-03-20 01:54:00,
2013-03-19 21:59:00,39.7,16.1,30.09,North,349,6.0,12.0,38,0.00,,,0.00,Wunderground v.1.15,2013-03-20 01:59:00,
2013-03-19 22:04:00,39.5,16.0,30.09,North,355,6.0,15.0,38,0.00,,,0.00,Wunderground v.1.15,2013-03-20 02:04:00,
2013-03-19 22:14:00,39.2,16.3,30.09,North,355,5.0,15.0,39,0.00,,,0.00,Wunderground v.1.15,2013-03-20 02:14:00,
2013-03-19 22:19:00,38.9,16.0,30.09,North,360,5.0,15.0,39,0.00,,,0.00,Wunderground v.1.15,2013-03-20 02:19:00,
2013-03-19 22:24:00,38.8,16.5,30.09,North,355,5.0,15.0,40,0.00,,,0.00,Wunderground v.1.15,2013-03-20 02:24:00,
2013-03-19 22:33:00,38.5,15.7,30.09,North,355,6.0,15.0,39,0.00,,,0.00,Wunderground v.1.15,2013-03-20 02:33:00,
2013-03-19 22:38:00,38.4,15.6,30.09,North,355,7.0,7.0,39,0.00,,,0.00,Wunderground v.1.15,2013-03-20 02:38:00,
2013-03-19 22:44:00,38.3,16.1,30.09,North,360,7.0,15.0,40,0.00,,,0.00,Wunderground v.1.15,2013-03-20 02:44:00,
2013-03-19 22:49:00,38.2,15.4,30.08,North,360,7.0,7.0,39,0.00,,,0.00,Wunderground v.1.15,2013-03-20 02:49:00,
2013-03-19 22:54:00,38.2,15.4,30.08,North,355,8.0,10.0,39,0.00,,,0.00,Wunderground v.1.15,2013-03-20 02:54:00,
2013-03-19 22:59:00,38.2,15.4,30.08,North,355,8.0,15.0,39,0.00,,,0.00,Wunderground v.1.15,2013-03-20 02:59:00,
2013-03-19 23:04:00,38.1,15.3,30.08,North,5,8.0,15.0,39,0.00,,,0.00,Wunderground v.1.15,2013-03-20 03:04:00,
2013-03-19 23:13:00,38.0,15.2,30.09,North,355,7.0,10.0,39,0.00,,,0.00,Wunderground v.1.15,2013-03-20 03:13:00,
2013-03-19 23:18:00,37.9,15.1,30.09,North,349,7.0,10.0,39,0.00,,,0.00,Wunderground v.1.15,2013-03-20 03:18:00,
2013-03-19 23:23:00,37.9,15.1,30.09,North,360,7.0,10.0,39,0.00,,,0.00,Wunderground v.1.15,2013-03-20 03:23:00,
2013-03-19 23:28:00,37.8,15.0,30.09,NNW,346,8.0,10.0,39,0.00,,,0.00,Wunderground v.1.15,2013-03-20 03:28:00,
2013-03-19 23:34:00,37.7,14.9,30.09,North,355,8.0,10.0,39,0.00,,,0.00,Wunderground v.1.15,2013-03-20 03:34:00,
2013-03-19 23:43:00,37.5,14.8,30.09,North,355,8.0,9.0,39,0.00,,,0.00,Wunderground v.1.15,2013-03-20 03:43:00,
2013-03-19 23:48:00,37.4,14.7,30.09,NNW,348,8.0,10.0,39,0.00,,,0.00,Wunderground v.1.15,2013-03-20 03:48:00,
2013-03-19 23:53:00,37.2,14.5,30.09,North,355,8.0,10.0,39,0.00,,,0.00,Wunderground v.1.15,2013-03-20 03:53:00,
2013-03-19 23:58:00,37.1,14.4,30.09,North,355,8.0,11.0,39,0.00,,,0.00,Wunderground v.1.15,2013-03-20 03:58:00,